createdAt,value
2022-12-18T00:00:34.499Z,42.00
2022-12-18T00:03:03.856Z,42.35
2022-12-18T00:05:08.477Z,45.95
2022-12-18T00:07:11.514Z,44.55
2022-12-18T00:09:14.749Z,42.50
2022-12-18T00:11:20.047Z,45.40
2022-12-18T00:13:24.473Z,57.78
2022-12-18T00:15:27.908Z,43.03
2022-12-18T00:17:30.907Z,42.88
2022-12-18T00:19:34.072Z,43.05
2022-12-18T00:21:37.110Z,53.05
2022-12-18T00:23:41.634Z,60.63
2022-12-18T00:25:45.115Z,53.42
2022-12-18T00:27:48.212Z,50.55
2022-12-18T00:29:52.922Z,62.05
2022-12-18T00:31:55.937Z,103.10
2022-12-18T00:33:59.436Z,91.40
2022-12-18T00:36:03.053Z,109.18
2022-12-18T00:38:07.296Z,68.95
2022-12-18T00:40:11.978Z,57.65
2022-12-18T00:42:32.930Z,52.13
2022-12-18T00:44:35.875Z,49.55
2022-12-18T00:46:40.394Z,54.92
2022-12-18T00:48:44.020Z,48.63
2022-12-18T00:50:49.730Z,51.58
2022-12-18T00:52:53.279Z,43.70
2022-12-18T00:54:56.339Z,41.70
2022-12-18T00:56:59.456Z,48.33
2022-12-18T00:59:02.517Z,44.05
2022-12-18T01:01:06.157Z,48.30
2022-12-18T01:03:15.011Z,49.35
2022-12-18T01:05:20.535Z,46.45
2022-12-18T01:07:23.615Z,45.33
2022-12-18T01:09:29.742Z,44.00
2022-12-18T01:11:33.339Z,42.83
2022-12-18T01:13:36.765Z,42.65
2022-12-18T01:15:40.866Z,48.75
2022-12-18T01:17:46.707Z,46.65
2022-12-18T01:19:51.308Z,54.38
2022-12-18T01:21:54.347Z,45.85
2022-12-18T01:23:57.943Z,41.75
2022-12-18T01:26:06.594Z,41.17
2022-12-18T01:28:12.089Z,42.22
2022-12-18T01:30:15.313Z,41.95
2022-12-18T01:32:21.601Z,39.28
2022-12-18T01:34:24.686Z,40.28
2022-12-18T01:36:30.732Z,42.53
2022-12-18T01:38:33.979Z,40.42
2022-12-18T01:40:37.176Z,42.85
2022-12-18T01:42:40.304Z,41.65
2022-12-18T01:45:07.846Z,47.65
2022-12-18T01:47:10.964Z,43.38
2022-12-18T01:49:14.014Z,39.58
2022-12-18T01:51:17.383Z,39.53
2022-12-18T01:53:24.707Z,38.72
2022-12-18T01:55:30.601Z,39.05
2022-12-18T01:57:33.988Z,33.40
2022-12-18T01:59:37.897Z,40.90
2022-12-18T02:01:41.193Z,45.10
2022-12-18T02:03:46.925Z,40.92
2022-12-18T02:05:57.988Z,46.47
2022-12-18T02:08:08.472Z,43.05
2022-12-18T02:10:18.012Z,36.00
2022-12-18T02:12:23.238Z,39.80
2022-12-18T02:14:31.380Z,38.85
2022-12-18T02:16:41.486Z,40.17
2022-12-18T02:18:49.442Z,37.17
2022-12-18T02:20:57.694Z,43.17
2022-12-18T02:23:10.117Z,47.08
2022-12-18T02:25:27.037Z,38.38
2022-12-18T02:27:32.988Z,38.80
2022-12-18T02:29:41.244Z,35.22
2022-12-18T02:31:47.321Z,39.75
2022-12-18T02:33:51.815Z,37.00
2022-12-18T02:35:56.303Z,36.80
2022-12-18T02:38:00.252Z,40.75
2022-12-18T02:40:08.004Z,39.03
2022-12-18T02:42:14.185Z,46.35
2022-12-18T02:44:18.665Z,40.65
2022-12-18T02:46:40.286Z,41.17
2022-12-18T02:48:48.026Z,42.13
2022-12-18T02:50:55.423Z,40.78
2022-12-18T02:53:08.803Z,36.15
2022-12-18T02:55:20.938Z,39.50
2022-12-18T02:57:36.819Z,37.70
2022-12-18T02:59:44.429Z,40.70
2022-12-18T03:01:53.570Z,36.65
2022-12-18T03:03:59.573Z,37.22
2022-12-18T03:06:05.965Z,39.30
2022-12-18T03:08:12.582Z,36.40
2022-12-18T03:10:19.316Z,35.92
2022-12-18T03:12:28.983Z,37.47
2022-12-18T03:14:36.236Z,39.78
2022-12-18T03:16:42.534Z,38.65
2022-12-18T03:18:49.060Z,38.05
2022-12-18T03:20:53.846Z,38.63
2022-12-18T03:23:03.396Z,36.38
2022-12-18T03:25:08.520Z,38.65
2022-12-18T03:27:15.210Z,36.88
2022-12-18T03:29:21.127Z,39.30
2022-12-18T03:31:25.876Z,34.55
2022-12-18T03:33:33.947Z,34.17
2022-12-18T03:35:41.214Z,39.35
2022-12-18T03:37:44.822Z,43.72
2022-12-18T03:39:48.651Z,38.17
2022-12-18T03:41:58.685Z,41.67
2022-12-18T03:44:14.458Z,42.63
2022-12-18T03:46:28.097Z,39.00
2022-12-18T03:48:36.523Z,37.75
2022-12-18T03:50:48.654Z,37.47
2022-12-18T03:52:57.148Z,40.70
2022-12-18T03:55:01.508Z,37.05
2022-12-18T03:57:08.856Z,36.65
2022-12-18T03:59:14.812Z,40.95
2022-12-18T04:01:20.686Z,39.65
2022-12-18T04:03:26.546Z,40.13
2022-12-18T04:05:32.340Z,37.63
2022-12-18T04:07:36.185Z,46.10
2022-12-18T04:09:43.324Z,41.15
2022-12-18T04:11:48.126Z,37.22
2022-12-18T04:13:58.198Z,36.85
2022-12-18T04:16:02.716Z,43.45
2022-12-18T04:18:06.693Z,35.88
2022-12-18T04:20:18.156Z,40.75
2022-12-18T04:22:23.948Z,34.05
2022-12-18T04:24:32.273Z,39.60
2022-12-18T04:26:48.177Z,39.83
2022-12-18T04:28:54.765Z,39.70
2022-12-18T04:30:58.201Z,43.45
2022-12-18T04:33:01.890Z,37.03
2022-12-18T04:35:11.468Z,37.85
2022-12-18T04:37:16.007Z,40.22
2022-12-18T04:39:21.144Z,37.58
2022-12-18T04:41:26.403Z,38.08
2022-12-18T04:43:30.411Z,38.30
2022-12-18T04:45:33.459Z,39.53
2022-12-18T04:47:36.447Z,36.05
2022-12-18T04:49:39.420Z,37.85
2022-12-18T04:51:42.589Z,41.00
2022-12-18T04:53:45.613Z,39.42
2022-12-18T04:55:50.132Z,44.30
2022-12-18T04:57:53.211Z,35.88
2022-12-18T04:59:56.280Z,43.72
2022-12-18T05:01:59.487Z,38.70
2022-12-18T05:04:02.804Z,37.83
2022-12-18T05:06:06.825Z,40.33
2022-12-18T05:08:09.947Z,40.15
2022-12-18T05:10:13.020Z,42.95
2022-12-18T05:12:17.498Z,39.78
2022-12-18T05:14:21.129Z,44.65
2022-12-18T05:16:24.126Z,42.47
2022-12-18T05:18:27.688Z,39.78
2022-12-18T05:20:30.934Z,46.75
2022-12-18T05:22:33.959Z,44.60
2022-12-18T05:24:37.098Z,43.00
2022-12-18T05:26:40.131Z,51.45
2022-12-18T05:28:46.974Z,52.47
2022-12-18T05:30:51.705Z,52.40
2022-12-18T05:32:54.685Z,42.90
2022-12-18T05:34:58.752Z,46.58
2022-12-18T05:37:01.747Z,48.75
2022-12-18T05:39:06.285Z,44.67
2022-12-18T05:41:10.608Z,44.35
2022-12-18T05:43:19.376Z,43.90
2022-12-18T05:45:25.620Z,45.58
2022-12-18T05:47:29.013Z,39.30
2022-12-18T05:49:32.336Z,42.17
2022-12-18T05:51:35.340Z,42.28
2022-12-18T05:53:39.136Z,43.05
2022-12-18T05:55:43.586Z,40.30
2022-12-18T05:57:46.791Z,39.47
2022-12-18T05:59:49.948Z,42.58
2022-12-18T06:01:59.404Z,37.78
2022-12-18T06:04:02.696Z,39.50
2022-12-18T06:06:14.098Z,40.67
2022-12-18T06:08:19.835Z,39.28
2022-12-18T06:10:22.829Z,44.75
2022-12-18T06:12:25.850Z,38.15
2022-12-18T06:14:29.355Z,38.97
2022-12-18T06:16:33.021Z,35.53
2022-12-18T06:18:40.303Z,35.35
2022-12-18T06:20:43.922Z,34.88
2022-12-18T06:22:47.144Z,35.30
2022-12-18T06:24:50.100Z,44.45
2022-12-18T06:26:53.220Z,38.85
2022-12-18T06:28:56.315Z,35.63
2022-12-18T06:30:59.283Z,38.92
2022-12-18T06:33:02.395Z,35.13
2022-12-18T06:35:08.189Z,37.42
2022-12-18T06:37:11.177Z,39.08
2022-12-18T06:39:14.387Z,36.88
2022-12-18T06:41:19.263Z,35.78
2022-12-18T06:43:22.305Z,38.55
2022-12-18T06:45:25.484Z,34.00
2022-12-18T06:47:28.620Z,35.53
2022-12-18T06:49:31.664Z,37.33
2022-12-18T06:51:38.229Z,40.33
2022-12-18T06:53:41.625Z,38.00
2022-12-18T06:55:44.857Z,40.33
2022-12-18T06:57:47.884Z,38.72
2022-12-18T06:59:50.942Z,39.38
2022-12-18T07:01:54.273Z,48.83
2022-12-18T07:03:58.764Z,70.60
2022-12-18T07:06:02.275Z,98.40
2022-12-18T07:08:07.316Z,116.53
2022-12-18T07:10:11.306Z,81.38
2022-12-18T07:12:14.961Z,81.55
2022-12-18T07:14:18.035Z,79.88
2022-12-18T07:16:25.371Z,57.00
2022-12-18T07:18:28.891Z,105.00
2022-12-18T07:20:32.020Z,84.05
2022-12-18T07:22:35.077Z,71.72
2022-12-18T07:24:39.549Z,49.80
2022-12-18T07:26:42.582Z,56.60
2022-12-18T07:28:45.873Z,51.75
2022-12-18T07:30:48.970Z,58.28
2022-12-18T07:32:52.055Z,41.85
2022-12-18T07:34:55.124Z,42.28
2022-12-18T07:36:58.230Z,38.35
2022-12-18T07:39:01.347Z,37.28
2022-12-18T07:41:07.677Z,37.35
2022-12-18T07:43:10.893Z,47.55
2022-12-18T07:45:13.869Z,66.72
2022-12-18T07:47:16.821Z,46.42
2022-12-18T07:49:19.873Z,38.38
2022-12-18T07:51:22.945Z,40.40
2022-12-18T07:53:26.052Z,41.20
2022-12-18T07:55:35.338Z,37.70
2022-12-18T07:57:55.421Z,37.47
2022-12-18T08:00:02.479Z,40.17
2022-12-18T08:02:16.336Z,38.65
2022-12-18T08:04:40.605Z,35.95
2022-12-18T08:06:47.530Z,38.30
2022-12-18T08:08:51.124Z,41.28
2022-12-18T08:10:54.348Z,37.83
2022-12-18T08:13:03.148Z,32.75
2022-12-18T08:15:09.107Z,39.88
2022-12-18T08:17:12.187Z,39.55
2022-12-18T08:19:15.440Z,38.63
2022-12-18T08:21:21.356Z,45.78
2022-12-18T08:23:28.552Z,38.85
2022-12-18T08:25:31.889Z,43.83
2022-12-18T08:27:35.021Z,38.75
2022-12-18T08:29:39.527Z,40.97
2022-12-18T08:31:42.700Z,38.05
2022-12-18T08:33:45.784Z,40.30
2022-12-18T08:35:50.019Z,38.58
2022-12-18T08:37:53.035Z,36.42
2022-12-18T08:39:56.043Z,40.25
2022-12-18T08:42:16.446Z,38.25
2022-12-18T08:44:37.174Z,34.67
2022-12-18T08:46:43.099Z,36.35
2022-12-18T08:48:46.558Z,35.20
2022-12-18T08:50:56.156Z,35.45
2022-12-18T08:52:59.227Z,39.90
2022-12-18T08:55:02.490Z,33.42
2022-12-18T08:57:05.539Z,41.35
2022-12-18T08:59:08.501Z,33.85
2022-12-18T09:01:13.240Z,38.63
2022-12-18T09:03:19.075Z,37.15
2022-12-18T09:05:24.276Z,38.13
2022-12-18T09:07:27.606Z,33.28
2022-12-18T09:09:30.653Z,38.70
2022-12-18T09:11:35.531Z,35.22
2022-12-18T09:13:39.386Z,40.00
2022-12-18T09:15:43.988Z,37.17
2022-12-18T09:17:49.674Z,38.00
2022-12-18T09:19:54.336Z,37.97
2022-12-18T09:21:57.420Z,34.42
2022-12-18T09:24:00.734Z,34.65
2022-12-18T09:26:04.008Z,40.22
2022-12-18T09:28:08.859Z,38.10
2022-12-18T09:30:12.718Z,34.75
2022-12-18T09:32:22.182Z,40.28
2022-12-18T09:34:25.583Z,39.92
2022-12-18T09:36:30.079Z,36.10
2022-12-18T09:38:33.122Z,34.20
2022-12-18T09:40:38.526Z,36.38
2022-12-18T09:42:41.617Z,37.78
2022-12-18T09:44:47.467Z,37.33
2022-12-18T09:46:56.226Z,35.35
2022-12-18T09:49:01.824Z,35.55
2022-12-18T09:51:10.261Z,39.35
2022-12-18T09:53:19.009Z,36.17
2022-12-18T09:55:26.399Z,36.95
2022-12-18T09:57:32.144Z,35.78
2022-12-18T09:59:38.416Z,37.40
2022-12-18T10:01:44.462Z,38.95
2022-12-18T10:03:47.773Z,41.33
2022-12-18T10:05:59.478Z,34.15
2022-12-18T10:08:04.816Z,36.03
2022-12-18T10:10:16.931Z,36.80
2022-12-18T10:12:24.952Z,37.83
2022-12-18T10:14:32.671Z,33.35
2022-12-18T10:16:40.907Z,41.67
2022-12-18T10:19:04.366Z,37.92
2022-12-18T10:21:12.885Z,42.03
2022-12-18T10:23:20.148Z,36.25
2022-12-18T10:25:27.844Z,38.17
2022-12-18T10:27:31.139Z,33.75
2022-12-18T10:29:34.285Z,33.05
2022-12-18T10:31:37.387Z,34.80
2022-12-18T10:33:40.635Z,33.25
2022-12-18T10:35:44.294Z,32.47
2022-12-18T10:38:18.330Z,33.85
2022-12-18T10:40:25.736Z,29.35
2022-12-18T10:42:30.142Z,31.52
2022-12-18T10:44:33.235Z,30.65
2022-12-18T10:46:36.636Z,29.75
2022-12-18T10:48:43.935Z,32.20
2022-12-18T10:53:20.967Z,30.70
2022-12-18T10:55:24.081Z,36.78
2022-12-18T10:57:36.591Z,32.17
2022-12-18T10:59:54.016Z,32.03
2022-12-18T11:01:58.524Z,29.10
2022-12-18T11:04:19.189Z,32.35
2022-12-18T11:06:25.647Z,32.13
2022-12-18T11:08:28.678Z,32.50
2022-12-18T11:10:34.007Z,30.67
2022-12-18T11:12:38.434Z,35.70
2022-12-18T11:14:47.399Z,31.95
2022-12-18T11:17:24.218Z,31.80
2022-12-18T11:19:25.278Z,29.50
2022-12-18T11:21:28.293Z,32.22
2022-12-18T11:23:31.338Z,31.65
2022-12-18T11:25:36.180Z,34.70
2022-12-18T11:27:41.272Z,30.77
2022-12-18T11:29:46.750Z,33.30
2022-12-18T11:31:50.250Z,29.05
2022-12-18T11:36:28.196Z,34.60
2022-12-18T11:38:33.503Z,31.77
2022-12-18T11:40:41.342Z,32.95
2022-12-18T11:42:48.707Z,30.40
2022-12-18T11:44:54.847Z,30.00
2022-12-18T11:47:02.556Z,29.45
2022-12-18T11:49:09.364Z,34.15
2022-12-18T11:51:17.014Z,30.77
2022-12-18T11:53:26.877Z,32.85
2022-12-18T11:55:39.908Z,34.58
2022-12-18T11:57:52.007Z,30.40
2022-12-18T11:59:59.315Z,32.50
2022-12-18T12:02:13.672Z,32.60
2022-12-18T12:04:39.533Z,36.13
2022-12-18T12:06:48.855Z,34.28
2022-12-18T12:09:02.807Z,32.78
2022-12-18T12:11:10.187Z,30.00
2022-12-18T12:13:24.024Z,29.65
2022-12-18T12:15:36.800Z,28.73
2022-12-18T12:17:44.962Z,30.13
2022-12-18T12:19:52.766Z,34.35
2022-12-18T12:22:01.963Z,30.55
2022-12-18T12:24:13.412Z,31.08
2022-12-18T12:26:20.339Z,31.58
2022-12-18T12:28:36.298Z,32.55
2022-12-18T12:30:50.659Z,34.63
2022-12-18T12:33:09.539Z,32.90
2022-12-18T12:35:25.968Z,30.05
2022-12-18T12:37:36.371Z,35.40
2022-12-18T12:39:47.987Z,32.47
2022-12-18T12:42:08.829Z,31.52
2022-12-18T12:44:18.849Z,34.58
2022-12-18T12:46:23.922Z,33.85
2022-12-18T12:48:36.801Z,35.17
2022-12-18T12:50:40.564Z,33.22
2022-12-18T12:52:46.414Z,27.52
2022-12-18T12:54:50.343Z,28.23
2022-12-18T12:57:00.117Z,32.72
2022-12-18T12:59:08.030Z,34.05
2022-12-18T13:01:23.382Z,34.55
2022-12-18T13:03:44.251Z,31.75
2022-12-18T13:05:51.007Z,32.17
2022-12-18T13:07:58.508Z,33.85
2022-12-18T13:10:34.486Z,32.05
2022-12-18T13:12:55.735Z,32.28
2022-12-18T13:15:14.611Z,32.33
2022-12-18T13:17:30.265Z,29.50
2022-12-18T13:19:33.387Z,35.72
2022-12-18T13:21:59.799Z,33.13
2022-12-18T13:24:18.326Z,34.08
2022-12-18T13:26:35.677Z,34.00
2022-12-18T13:28:59.896Z,31.45
2022-12-18T13:31:03.653Z,30.38
2022-12-18T13:34:09.390Z,35.85
2022-12-18T13:36:15.542Z,34.42
2022-12-18T13:38:23.590Z,30.55
2022-12-18T13:40:59.974Z,29.05
2022-12-18T13:43:26.795Z,31.45
2022-12-18T13:45:50.502Z,31.83
2022-12-18T13:48:06.036Z,37.83
2022-12-18T13:50:22.721Z,34.58
2022-12-18T13:52:28.009Z,29.30
2022-12-18T13:54:35.481Z,34.55
2022-12-18T13:56:46.123Z,33.50
2022-12-18T13:59:08.059Z,32.00
2022-12-18T14:01:24.325Z,32.47
2022-12-18T14:03:29.489Z,31.88
2022-12-18T14:05:36.249Z,30.35
2022-12-18T14:07:58.475Z,33.95
2022-12-18T14:13:02.204Z,36.33
2022-12-18T14:15:08.993Z,35.55
2022-12-18T14:17:16.832Z,35.35
2022-12-18T14:19:21.123Z,37.00
2022-12-18T14:21:28.411Z,29.35
2022-12-18T14:23:34.081Z,35.95
2022-12-18T14:25:37.137Z,33.67
2022-12-18T14:30:02.757Z,33.67
2022-12-18T14:32:17.057Z,32.08
2022-12-18T14:34:21.263Z,35.72
2022-12-18T14:36:28.492Z,29.67
2022-12-18T14:38:32.517Z,35.88
2022-12-18T14:40:35.701Z,33.92
2022-12-18T14:42:39.047Z,34.72
2022-12-18T14:45:05.247Z,31.30
2022-12-18T14:47:05.445Z,33.40
2022-12-18T14:49:22.910Z,35.58
2022-12-18T14:51:30.760Z,34.63
2022-12-18T14:53:40.283Z,30.75
2022-12-18T14:55:48.331Z,36.00
2022-12-18T14:58:06.412Z,35.42
2022-12-18T15:00:18.215Z,37.47
2022-12-18T15:02:24.637Z,35.92
2022-12-18T15:04:30.414Z,31.77
2022-12-18T15:06:36.707Z,32.92
2022-12-18T15:08:39.925Z,37.88
2022-12-18T15:10:49.017Z,32.13
2022-12-18T15:13:34.599Z,36.35
2022-12-18T15:15:49.658Z,38.85
2022-12-18T15:17:59.299Z,35.83
2022-12-18T15:20:04.215Z,38.65
2022-12-18T15:22:26.873Z,38.95
2022-12-18T15:24:33.532Z,37.40
2022-12-18T15:26:39.260Z,32.40
2022-12-18T15:28:46.576Z,35.13
2022-12-18T15:31:24.061Z,39.45
2022-12-18T15:33:29.255Z,39.10
2022-12-18T15:35:32.354Z,36.00
2022-12-18T15:37:36.848Z,37.67
2022-12-18T15:39:40.597Z,37.28
2022-12-18T15:42:04.920Z,39.58
2022-12-18T15:44:23.237Z,41.85
2022-12-18T15:46:42.399Z,36.90
2022-12-18T15:48:46.600Z,41.67
2022-12-18T15:50:50.073Z,45.42
2022-12-18T15:52:54.750Z,38.47
2022-12-18T15:55:15.244Z,36.97
2022-12-18T15:57:25.221Z,46.38
2022-12-18T15:59:29.416Z,40.28
2022-12-18T16:01:38.193Z,40.55
2022-12-18T16:03:49.275Z,45.00
2022-12-18T16:05:52.419Z,35.83
2022-12-18T16:11:38.764Z,35.22
2022-12-18T16:13:42.492Z,36.42
2022-12-18T16:15:46.101Z,33.05
2022-12-18T16:18:00.903Z,39.40
2022-12-18T16:20:06.124Z,36.92
2022-12-18T16:22:24.887Z,37.35
2022-12-18T16:24:29.769Z,33.38
2022-12-18T16:26:35.881Z,34.88
2022-12-18T16:28:57.144Z,34.38
2022-12-18T16:31:00.411Z,37.97
2022-12-18T16:33:03.743Z,33.53
2022-12-18T16:35:11.561Z,36.38
2022-12-18T16:37:16.249Z,31.60
2022-12-18T16:39:19.539Z,37.47
2022-12-18T16:41:35.160Z,39.40
2022-12-18T16:43:41.915Z,37.20
2022-12-18T16:45:45.356Z,37.20
2022-12-18T16:47:48.468Z,44.45
2022-12-18T16:49:53.250Z,38.90
2022-12-18T16:52:02.968Z,43.15
2022-12-18T16:54:10.916Z,39.38
2022-12-18T16:56:15.734Z,41.95
2022-12-18T16:58:18.736Z,37.47
2022-12-18T17:00:22.810Z,36.65
2022-12-18T17:02:28.244Z,33.70
2022-12-18T17:04:31.842Z,36.38
2022-12-18T17:06:36.695Z,36.22
2022-12-18T17:08:41.249Z,41.15
2022-12-18T17:10:44.607Z,34.17
2022-12-18T17:12:55.239Z,34.80
2022-12-18T17:14:58.431Z,34.08
2022-12-18T17:19:26.325Z,37.15
2022-12-18T17:21:29.792Z,35.83
2022-12-18T17:23:34.386Z,36.45
2022-12-18T17:25:40.904Z,35.58
2022-12-18T17:27:44.164Z,37.92
2022-12-18T17:29:49.132Z,38.53
2022-12-18T17:31:52.713Z,37.42
2022-12-18T17:33:57.817Z,42.13
2022-12-18T17:36:01.120Z,42.35
2022-12-18T17:38:04.236Z,44.70
2022-12-18T17:40:08.833Z,37.50
2022-12-18T17:42:15.159Z,33.90
2022-12-18T17:44:19.480Z,39.75
2022-12-18T17:46:23.003Z,38.60
2022-12-18T17:48:26.814Z,39.28
2022-12-18T17:50:30.497Z,39.53
2022-12-18T17:52:36.413Z,38.35
2022-12-18T17:54:42.363Z,39.83
2022-12-18T17:56:45.929Z,40.60
2022-12-18T17:58:51.403Z,40.63
2022-12-18T18:00:54.534Z,37.30
2022-12-18T18:02:58.369Z,37.38
2022-12-18T18:05:01.570Z,38.55
2022-12-18T18:07:04.757Z,38.08
2022-12-18T18:09:16.711Z,40.58
2022-12-18T18:11:39.826Z,36.28
2022-12-18T18:14:00.694Z,38.83
2022-12-18T18:16:06.001Z,35.90
2022-12-18T18:18:09.244Z,41.40
2022-12-18T18:20:22.308Z,43.42
2022-12-18T18:22:26.234Z,37.80
2022-12-18T18:24:29.832Z,37.33
2022-12-18T18:27:01.956Z,37.92
2022-12-18T18:29:06.823Z,38.60
2022-12-18T18:31:13.069Z,36.47
2022-12-18T18:33:19.303Z,38.63
2022-12-18T18:35:52.399Z,35.85
2022-12-18T18:37:45.879Z,38.78
2022-12-18T18:40:07.462Z,34.78
2022-12-18T18:42:11.113Z,35.85
2022-12-18T18:44:14.222Z,39.75
2022-12-18T18:46:19.130Z,41.35
2022-12-18T18:48:22.242Z,43.70
2022-12-18T18:50:26.575Z,47.55
2022-12-18T18:52:31.932Z,48.85
2022-12-18T18:54:35.252Z,43.35
2022-12-18T18:57:11.715Z,47.00
2022-12-18T18:59:01.899Z,60.08
2022-12-18T19:01:07.038Z,57.78
2022-12-18T19:03:12.270Z,48.65
2022-12-18T19:05:15.863Z,52.67
2022-12-18T19:07:30.251Z,50.20
2022-12-18T19:09:34.804Z,50.47
2022-12-18T19:11:55.197Z,49.92
2022-12-18T19:14:19.348Z,43.22
2022-12-18T19:16:22.712Z,53.42
2022-12-18T19:18:29.166Z,89.80
2022-12-18T19:20:32.664Z,58.60
2022-12-18T19:22:36.292Z,51.70
2022-12-18T19:24:39.882Z,50.30
2022-12-18T19:26:43.670Z,47.33
2022-12-18T19:28:47.609Z,48.38
2022-12-18T19:30:58.880Z,50.85
2022-12-18T19:33:19.995Z,45.35
2022-12-18T19:35:27.219Z,48.47
2022-12-18T19:37:30.766Z,45.10
2022-12-18T19:39:49.339Z,45.08
2022-12-18T19:41:52.894Z,44.47
2022-12-18T19:43:56.068Z,47.53
2022-12-18T19:45:59.685Z,46.88
2022-12-18T19:48:04.533Z,43.45
2022-12-18T19:50:09.327Z,44.45
2022-12-18T19:52:35.487Z,46.83
2022-12-18T19:54:38.786Z,45.63
2022-12-18T19:56:41.829Z,49.00
2022-12-18T19:58:45.910Z,44.22
2022-12-18T20:00:58.285Z,45.08
2022-12-18T20:03:10.042Z,47.85
2022-12-18T20:05:27.952Z,44.05
2022-12-18T20:07:31.187Z,37.20
2022-12-18T20:09:53.948Z,41.90
2022-12-18T20:12:02.748Z,39.45
2022-12-18T20:14:06.582Z,41.08
2022-12-18T20:16:10.463Z,39.33
2022-12-18T20:18:13.604Z,39.88
2022-12-18T20:20:17.165Z,41.60
2022-12-18T20:22:21.705Z,44.45
2022-12-18T20:24:24.821Z,42.92
2022-12-18T20:26:29.611Z,42.25
2022-12-18T20:28:34.443Z,45.00
2022-12-18T20:30:38.120Z,43.80
2022-12-18T20:32:41.200Z,42.97
2022-12-18T20:34:44.317Z,36.38
2022-12-18T20:37:13.349Z,44.63
2022-12-18T20:39:17.825Z,48.30
2022-12-18T20:41:22.524Z,44.85
2022-12-18T20:43:27.052Z,39.22
2022-12-18T20:45:30.239Z,43.50
2022-12-18T20:47:34.072Z,44.22
2022-12-18T20:49:37.538Z,41.05
2022-12-18T20:51:42.617Z,56.10
2022-12-18T20:53:46.451Z,49.53
2022-12-18T20:56:17.756Z,44.35
2022-12-18T20:58:26.027Z,45.95
2022-12-18T21:00:29.139Z,46.70
2022-12-18T21:02:32.656Z,47.35
2022-12-18T21:04:51.330Z,43.53
2022-12-18T21:07:00.557Z,47.78
2022-12-18T21:09:06.343Z,47.80
2022-12-18T21:11:31.236Z,48.63
2022-12-18T21:13:37.194Z,48.90
2022-12-18T21:15:40.205Z,50.42
2022-12-18T21:17:44.952Z,48.15
2022-12-18T21:19:50.798Z,44.22
2022-12-18T21:21:54.907Z,41.97
2022-12-18T21:23:57.944Z,45.78
2022-12-18T21:26:16.932Z,45.03
2022-12-18T21:28:22.125Z,54.60
2022-12-18T21:30:26.561Z,65.75
2022-12-18T21:32:30.924Z,55.85
2022-12-18T21:34:37.056Z,54.45
2022-12-18T21:36:40.417Z,48.92
2022-12-18T21:38:43.504Z,45.20
2022-12-18T21:40:47.471Z,62.60
2022-12-18T21:43:08.373Z,49.83
2022-12-18T21:45:12.100Z,41.65
2022-12-18T21:47:21.805Z,42.95
2022-12-18T21:49:26.526Z,42.08
2022-12-18T21:51:29.856Z,40.08
2022-12-18T21:53:32.978Z,43.05
2022-12-18T21:55:36.130Z,42.20
2022-12-18T21:57:39.959Z,47.03
2022-12-18T21:59:44.160Z,51.45
2022-12-18T22:01:47.917Z,47.60
2022-12-18T22:03:53.049Z,45.03
2022-12-18T22:06:07.615Z,50.67
2022-12-18T22:08:13.609Z,70.68
2022-12-18T22:12:43.812Z,47.97
2022-12-18T22:14:51.100Z,48.63
2022-12-18T22:16:55.867Z,43.90
2022-12-18T22:19:00.556Z,46.72
2022-12-18T22:21:03.659Z,46.70
2022-12-18T22:23:06.852Z,48.03
2022-12-18T22:25:10.818Z,42.90
2022-12-18T22:27:13.834Z,41.60
2022-12-18T22:32:03.726Z,45.55
2022-12-18T22:34:08.675Z,45.63
2022-12-18T22:36:11.777Z,45.88
2022-12-18T22:38:14.740Z,43.03
2022-12-18T22:40:23.892Z,43.85
2022-12-18T22:42:28.810Z,34.00
2022-12-18T22:44:31.833Z,40.70
2022-12-18T22:46:36.894Z,40.25
2022-12-18T22:48:40.017Z,41.60
2022-12-18T22:50:44.367Z,41.75
2022-12-18T22:52:47.374Z,42.35
2022-12-18T22:55:02.598Z,42.75
2022-12-18T22:57:05.817Z,39.50
2022-12-18T22:59:09.152Z,43.92
2022-12-18T23:01:20.737Z,42.97
2022-12-18T23:03:23.996Z,42.13
2022-12-18T23:05:30.938Z,41.75
2022-12-18T23:07:35.608Z,37.60
2022-12-18T23:09:39.079Z,39.70
2022-12-18T23:11:42.154Z,39.85
2022-12-18T23:13:45.461Z,43.80
2022-12-18T23:15:48.510Z,38.53
2022-12-18T23:17:52.035Z,39.20
2022-12-18T23:19:55.053Z,52.50
2022-12-18T23:21:59.034Z,77.03
2022-12-18T23:24:03.409Z,47.97
2022-12-18T23:26:08.526Z,47.20
2022-12-18T23:28:11.564Z,47.17
2022-12-18T23:30:26.587Z,40.75
2022-12-18T23:32:29.624Z,41.53
2022-12-18T23:34:34.748Z,37.67
2022-12-18T23:36:46.251Z,37.85
2022-12-18T23:38:51.095Z,39.78
2022-12-18T23:41:11.896Z,40.35
2022-12-18T23:43:14.922Z,40.22
2022-12-18T23:45:18.454Z,40.97
2022-12-18T23:47:21.565Z,38.42
2022-12-18T23:49:24.544Z,38.42
2022-12-18T23:51:29.060Z,37.17
2022-12-18T23:53:32.184Z,40.55
2022-12-18T23:56:07.439Z,38.17
2022-12-18T23:58:17.353Z,41.42
